DEDDX EDDV-EDDV

Flight info

Callsign DEDDX
Flight time 0h 15m
Altitude
Route
Aircraft C172

Departure

Time 2026-05-01 09:33
Airport Hannover Airport (EDDV)

Arrival

Time 2026-05-01 09:49
Airport Hannover Airport (EDDV)
Time Latitude Longitude Altitude Speed Heading
2026-05-01 09:24 52.45736 9.68663 173 ft 0 kts 317°
2026-05-01 09:26 52.45747 9.68647 173 ft 8 kts 316°
2026-05-01 09:26 52.45722 9.68297 173 ft 23 kts 198°
2026-05-01 09:26 52.45646 9.68190 173 ft 16 kts 286°
2026-05-01 09:27 52.45649 9.67802 173 ft 6 kts 274°
2026-05-01 09:27 52.45642 9.67752 174 ft 3 kts 211°
2026-05-01 09:27 52.45628 9.67738 174 ft 1 kts 207°
2026-05-01 09:28 52.45627 9.67738 174 ft 0 kts 207°
2026-05-01 09:30 52.45617 9.67723 174 ft 6 kts 227°
2026-05-01 09:30 52.45581 9.67702 174 ft 0 kts 202°
2026-05-01 09:32 52.45522 9.67728 178 ft 20 kts 142°
2026-05-01 09:32 52.45481 9.68785 265 ft 70 kts 88°
2026-05-01 09:32 52.45530 9.69588 409 ft 75 kts 86°
2026-05-01 09:33 52.45363 9.70165 618 ft 59 kts 110°
2026-05-01 09:33 52.45406 9.70705 592 ft 82 kts 85°
2026-05-01 09:33 52.44327 9.71319 1010 ft 83 kts 176°
2026-05-01 09:34 52.43716 9.71369 1097 ft 92 kts 181°
2026-05-01 09:34 52.43468 9.70502 1043 ft 119 kts 294°
2026-05-01 09:34 52.43924 9.68180 1117 ft 100 kts 276°
2026-05-01 09:35 52.44022 9.67440 1151 ft 101 kts 275°
2026-05-01 09:35 52.44246 9.65324 1109 ft 91 kts 269°
2026-05-01 09:35 52.44305 9.64274 1022 ft 90 kts 268°
2026-05-01 09:36 52.44352 9.63269 941 ft 89 kts 295°
2026-05-01 09:36 52.44850 9.62804 900 ft 82 kts
2026-05-01 09:36 52.45384 9.63087 787 ft 75 kts 63°
2026-05-01 09:36 52.45504 9.63867 627 ft 68 kts 82°
2026-05-01 09:37 52.45601 9.64605 494 ft 67 kts 93°
2026-05-01 09:37 52.45576 9.66151 376 ft 61 kts 101°
2026-05-01 09:37 52.45529 9.66860 260 ft 65 kts 96°
2026-05-01 09:38 52.45495 9.68333 179 ft 64 kts 96°
2026-05-01 09:38 52.45434 9.68951 204 ft 59 kts 97°
2026-05-01 09:38 52.45527 9.69631 300 ft 71 kts 90°
2026-05-01 09:39 52.45374 9.71253 677 ft 77 kts 112°
2026-05-01 09:39 52.44943 9.71435 941 ft 71 kts 186°
2026-05-01 09:39 52.44414 9.71162 1001 ft 91 kts 201°
2026-05-01 09:40 52.43860 9.70589 1086 ft 94 kts 221°
2026-05-01 09:40 52.43791 9.68304 1182 ft 111 kts 277°
2026-05-01 09:40 52.43992 9.67141 1353 ft 108 kts 280°
2026-05-01 09:41 52.44129 9.65958 1415 ft 102 kts 273°
2026-05-01 09:41 52.44297 9.63746 1475 ft 99 kts 297°
2026-05-01 09:41 52.44898 9.63257 1340 ft 106 kts 358°
2026-05-01 09:42 52.45584 9.63543 1067 ft 91 kts 61°
2026-05-01 09:42 52.45642 9.64440 780 ft 82 kts 101°
2026-05-01 09:42 52.45540 9.66174 325 ft 67 kts 91°
2026-05-01 09:43 52.45514 9.67590 211 ft 59 kts 103°
2026-05-01 09:43 52.45470 9.68300 176 ft 62 kts 102°
2026-05-01 09:43 52.45487 9.69011 284 ft 67 kts 75°
2026-05-01 09:44 52.45424 9.70725 622 ft 82 kts 96°
2026-05-01 09:44 52.45101 9.71455 777 ft 89 kts 162°
2026-05-01 09:44 52.44474 9.71465 1004 ft 91 kts 174°
2026-05-01 09:45 52.43802 9.71401 1043 ft 101 kts 182°
2026-05-01 09:45 52.42453 9.71022 1098 ft 101 kts 203°
2026-05-01 09:45 52.41875 9.70521 1125 ft 85 kts 197°
2026-05-01 09:46 52.41512 9.69723 1066 ft 98 kts 251°
2026-05-01 09:46 52.41517 9.68549 944 ft 107 kts 282°
2026-05-01 09:46 52.41720 9.67369 905 ft 110 kts 283°
2026-05-01 09:46 52.41923 9.66253 1065 ft 94 kts 281°
2026-05-01 09:47 52.42321 9.65424 1083 ft 99 kts 341°
2026-05-01 09:47 52.43003 9.65117 1032 ft 106 kts 351°
2026-05-01 09:47 52.43708 9.64899 943 ft 99 kts
2026-05-01 09:47 52.44390 9.64798 865 ft 98 kts 360°
2026-05-01 09:48 52.44992 9.65102 748 ft 94 kts 52°
2026-05-01 09:48 52.45351 9.65973 552 ft 92 kts 70°
2026-05-01 09:48 52.45537 9.66905 314 ft 79 kts 93°
2026-05-01 09:48 52.45503 9.67703 196 ft 63 kts 99°
2026-05-01 09:49 52.45479 9.68346 176 ft 46 kts 100°
2026-05-01 09:49 52.45469 9.68694 177 ft 24 kts 92°
2026-05-01 09:49 52.45463 9.68929 179 ft 18 kts 96°
2026-05-01 09:49 52.45471 9.69110 179 ft 9 kts 46°
2026-05-01 09:50 52.45556 9.69133 174 ft 17 kts
2026-05-01 09:50 52.45591 9.69140 174 ft 0 kts
2026-05-01 09:51 52.45593 9.69140 174 ft 2 kts
2026-05-01 09:51 52.45637 9.69143 173 ft 11 kts
2026-05-01 09:52 52.45750 9.69147 173 ft 19 kts 340°
2026-05-01 09:52 52.45797 9.69001 173 ft 18 kts 250°
2026-05-01 09:52 52.45775 9.68833 173 ft 14 kts 238°
2026-05-01 09:52 52.45704 9.68829 173 ft 5 kts 181°
2026-05-01 09:53 52.45703 9.68829 173 ft 0 kts 181°